Time;durP1;ratioP1;P1;durP2;ratioP2;P2;SDS_P1;SDS_P2;PMS_P1;PMS_P2;Temp;Humidity;BMP_temperature;BMP_pressure;BME280_temperature;BME280_humidity;BME280_pressure;Samples;Min_cycle;Max_cycle;Signal;HPM_P1;HPM_P2
2023/10/07 00:01:58;;;;;;;3.80;2.60;;;17.00;99.90;;;;;;5025310;28;20407;-66
2023/10/07 00:04:25;;;;;;;4.53;2.47;;;17.10;99.90;;;;;;5024881;28;20297;-66
2023/10/07 00:06:53;;;;;;;5.07;2.90;;;17.10;99.90;;;;;;5020133;28;20726;-66
2023/10/07 00:09:22;;;;;;;6.03;3.43;;;17.00;99.90;;;;;;5024732;28;20742;-66
2023/10/07 00:11:49;;;;;;;4.67;2.90;;;17.10;99.90;;;;;;5005019;28;20229;-66
2023/10/07 00:14:16;;;;;;;4.90;2.53;;;17.10;99.90;;;;;;5012373;28;20299;-66
2023/10/07 00:16:46;;;;;;;4.17;2.83;;;17.10;99.90;;;;;;5011175;28;20232;-66
2023/10/07 00:19:13;;;;;;;3.50;2.90;;;17.10;99.90;;;;;;5004904;28;20279;-66
2023/10/07 00:21:58;;;;;;;3.63;2.87;;;17.10;99.90;;;;;;5008843;28;20213;-66
2023/10/07 00:24:32;;;;;;;3.77;2.67;;;17.10;99.90;;;;;;5009417;28;20205;-66
2023/10/07 00:27:00;;;;;;;3.70;2.97;;;17.10;99.90;;;;;;5025230;28;20953;-66
2023/10/07 00:29:39;;;;;;;3.67;3.13;;;17.10;99.90;;;;;;5029137;28;20303;-66
2023/10/07 00:32:07;;;;;;;5.73;3.10;;;17.10;99.90;;;;;;5022248;28;20240;-66
2023/10/07 00:34:38;;;;;;;7.63;3.03;;;17.10;99.90;;;;;;5022538;28;20212;-66
2023/10/07 00:37:05;;;;;;;4.30;2.83;;;17.10;99.90;;;;;;5028824;28;20228;-66
2023/10/07 00:39:37;;;;;;;3.50;2.77;;;17.10;99.90;;;;;;5028596;28;20209;-66
2023/10/07 00:42:07;;;;;;;4.23;2.80;;;17.10;99.90;;;;;;5012775;28;20193;-66
2023/10/07 00:44:35;;;;;;;3.23;2.83;;;17.10;99.90;;;;;;5009118;28;20279;-66
2023/10/07 00:47:12;;;;;;;4.33;2.83;;;17.10;99.90;;;;;;5008857;28;20241;-67
2023/10/07 00:49:42;;;;;;;4.47;2.90;;;17.10;99.90;;;;;;5008533;28;20197;-66
2023/10/07 00:52:13;;;;;;;3.10;2.60;;;17.10;99.90;;;;;;5014557;28;20224;-66
2023/10/07 00:54:50;;;;;;;4.73;2.70;;;17.10;99.90;;;;;;5028056;28;20220;-66
2023/10/07 00:57:24;;;;;;;5.03;2.63;;;17.10;99.90;;;;;;5016149;28;20201;-67
2023/10/07 00:59:53;;;;;;;2.80;2.60;;;17.00;99.90;;;;;;5008320;28;20311;-66
2023/10/07 01:02:23;;;;;;;6.70;2.80;;;17.10;99.90;;;;;;5022094;28;20204;-66
2023/10/07 01:04:50;;;;;;;5.20;2.97;;;17.10;99.90;;;;;;5022095;28;20934;-66
2023/10/07 01:07:19;;;;;;;4.40;2.80;;;17.10;99.90;;;;;;5021421;28;20647;-66
2023/10/07 01:09:59;;;;;;;5.83;3.57;;;17.10;99.90;;;;;;5027750;28;20675;-66
2023/10/07 01:12:35;;;;;;;6.43;3.03;;;17.10;99.90;;;;;;5027854;28;20235;-66
2023/10/07 01:15:13;;;;;;;2.53;2.33;;;17.00;99.90;;;;;;5028265;28;20865;-66
2023/10/07 01:17:42;;;;;;;8.50;3.27;;;17.10;99.90;;;;;;5013405;28;20255;-66
2023/10/07 01:20:11;;;;;;;4.23;2.97;;;17.10;99.90;;;;;;5015089;28;20197;-66
2023/10/07 01:22:45;;;;;;;3.17;2.37;;;17.10;99.90;;;;;;5027718;28;20223;-66
2023/10/07 01:25:18;;;;;;;6.03;2.90;;;17.10;99.90;;;;;;5027827;28;20207;-66
2023/10/07 01:27:53;;;;;;;4.50;2.87;;;17.10;99.90;;;;;;5012601;28;20221;-66
2023/10/07 01:30:26;;;;;;;4.60;2.90;;;17.10;99.90;;;;;;5017523;28;20205;-66
2023/10/07 01:33:01;;;;;;;6.37;3.23;;;17.00;99.90;;;;;;5026188;28;20228;-66
2023/10/07 01:35:32;;;;;;;5.00;2.73;;;17.00;99.90;;;;;;5027615;28;20196;-65
2023/10/07 01:38:07;;;;;;;4.70;2.83;;;17.10;99.90;;;;;;5026526;28;20718;-65
2023/10/07 01:40:45;;;;;;;4.43;2.90;;;17.10;99.90;;;;;;5007566;28;20279;-66
2023/10/07 01:43:12;;;;;;;3.43;2.77;;;17.10;99.90;;;;;;5024035;28;20646;-67
2023/10/07 01:45:39;;;;;;;4.10;2.90;;;17.10;99.90;;;;;;5009529;28;20229;-66
2023/10/07 01:48:08;;;;;;;4.13;2.70;;;17.20;99.90;;;;;;5015233;28;20205;-66
2023/10/07 01:50:39;;;;;;;6.37;2.90;;;17.20;99.90;;;;;;5027371;28;20269;-66
2023/10/07 01:53:08;;;;;;;5.47;3.30;;;17.10;99.90;;;;;;5027514;28;20231;-66
2023/10/07 01:55:36;;;;;;;4.60;2.97;;;17.10;99.90;;;;;;5027499;28;20252;-66
2023/10/07 01:58:04;;;;;;;3.87;3.00;;;17.10;99.90;;;;;;5011232;28;20296;-66
2023/10/07 02:00:43;;;;;;;5.33;2.90;;;17.10;99.90;;;;;;5026920;28;20217;-66
2023/10/07 02:03:14;;;;;;;4.90;3.03;;;17.10;99.90;;;;;;5027068;28;20686;-66
2023/10/07 02:05:47;;;;;;;3.30;3.00;;;17.10;99.90;;;;;;5027093;28;20209;-66
2023/10/07 02:08:20;;;;;;;5.43;3.00;;;17.10;99.90;;;;;;5009513;28;20208;-66
2023/10/07 02:10:49;;;;;;;4.47;3.47;;;17.10;99.90;;;;;;5007562;28;20204;-66
2023/10/07 02:13:19;;;;;;;5.27;3.03;;;17.10;99.90;;;;;;5007402;28;20315;-66
2023/10/07 02:15:46;;;;;;;4.00;3.00;;;17.10;99.90;;;;;;5007468;28;20685;-66
2023/10/07 02:18:15;;;;;;;3.23;2.83;;;17.10;99.90;;;;;;5006901;28;20301;-66
2023/10/07 02:20:49;;;;;;;5.27;3.27;;;17.10;99.90;;;;;;5007020;28;20320;-66
2023/10/07 02:23:22;;;;;;;5.20;3.40;;;17.20;99.90;;;;;;5007043;28;20202;-66
2023/10/07 02:25:50;;;;;;;5.97;3.30;;;17.10;99.90;;;;;;5010213;28;20204;-66
2023/10/07 02:28:21;;;;;;;5.90;3.50;;;17.10;99.90;;;;;;5023611;28;20201;-67
2023/10/07 02:31:00;;;;;;;7.20;3.53;;;17.10;99.90;;;;;;5026379;28;20212;-67
2023/10/07 02:33:27;;;;;;;4.47;3.13;;;17.10;99.90;;;;;;5026354;28;20224;-67
2023/10/07 02:35:56;;;;;;;5.50;3.40;;;17.10;99.90;;;;;;5025919;28;20774;-67
2023/10/07 02:38:29;;;;;;;6.87;3.73;;;17.10;99.90;;;;;;5008322;28;20209;-67
2023/10/07 02:40:59;;;;;;;7.77;3.37;;;17.10;99.90;;;;;;5006511;28;20264;-67
2023/10/07 02:43:27;;;;;;;4.80;3.90;;;17.10;99.90;;;;;;5006624;28;20280;-67
2023/10/07 02:45:59;;;;;;;5.53;3.40;;;17.10;99.90;;;;;;5006244;28;20205;-67
2023/10/07 02:48:27;;;;;;;6.30;3.30;;;17.10;99.90;;;;;;5024286;28;20215;-67
2023/10/07 02:50:54;;;;;;;7.07;3.30;;;17.00;99.90;;;;;;5025936;28;20212;-67
2023/10/07 02:53:21;;;;;;;6.60;3.60;;;17.00;99.90;;;;;;5026106;28;20327;-67
2023/10/07 02:55:54;;;;;;;5.13;3.13;;;17.00;99.90;;;;;;5025790;28;20319;-67
2023/10/07 02:58:27;;;;;;;12.43;3.87;;;17.00;99.90;;;;;;5025671;28;20212;-66
2023/10/07 03:00:59;;;;;;;6.33;3.73;;;17.00;99.90;;;;;;5025906;28;20197;-66
2023/10/07 03:03:38;;;;;;;8.93;3.43;;;17.00;99.90;;;;;;5025381;28;20659;-66
2023/10/07 03:06:07;;;;;;;6.13;3.50;;;17.00;99.90;;;;;;5025384;28;20266;-67
2023/10/07 03:08:48;;;;;;;7.23;3.40;;;17.00;99.90;;;;;;5025119;28;20205;-66
2023/10/07 03:11:39;;;;;;;7.73;3.37;;;17.00;99.90;;;;;;5025330;28;20211;-67
2023/10/07 03:14:12;;;;;;;9.30;3.97;;;17.00;99.90;;;;;;5025004;28;20219;-66
2023/10/07 03:16:45;;;;;;;7.93;3.83;;;17.00;99.90;;;;;;5025299;28;20578;-66
2023/10/07 03:19:22;;;;;;;9.73;4.30;;;17.00;99.90;;;;;;5025458;28;20197;-66
2023/10/07 03:22:09;;;;;;;7.00;3.47;;;17.00;99.90;;;;;;5025451;28;20231;-67
2023/10/07 03:24:42;;;;;;;4.37;3.60;;;16.90;99.90;;;;;;5025077;28;20347;-67
2023/10/07 03:27:21;;;;;;;7.10;3.23;;;16.90;99.90;;;;;;5025285;28;20236;-67
2023/10/07 03:29:59;;;;;;;8.23;4.00;;;16.90;99.90;;;;;;5025372;28;20745;-67
2023/10/07 03:32:48;;;;;;;6.43;3.67;;;16.90;99.90;;;;;;5025120;28;20223;-67
2023/10/07 03:35:35;;;;;;;6.33;3.20;;;16.90;99.90;;;;;;5007057;28;20208;-67
2023/10/07 03:38:08;;;;;;;4.97;3.47;;;16.90;99.90;;;;;;5005892;28;20193;-66
2023/10/07 03:40:37;;;;;;;5.20;3.27;;;16.90;99.90;;;;;;5006610;28;20616;-66
2023/10/07 03:43:08;;;;;;;5.03;3.53;;;16.90;99.90;;;;;;5006034;28;20214;-66
2023/10/07 03:45:39;;;;;;;6.37;3.40;;;16.90;99.90;;;;;;5019009;28;20625;-66
2023/10/07 03:48:22;;;;;;;3.93;3.10;;;16.90;99.90;;;;;;5024947;28;20228;-67
2023/10/07 03:50:59;;;;;;;6.37;3.53;;;16.90;99.90;;;;;;5025078;28;20313;-67
2023/10/07 03:53:31;;;;;;;5.33;2.93;;;16.90;99.90;;;;;;5025047;28;20216;-66
2023/10/07 03:55:59;;;;;;;4.73;3.20;;;16.90;99.90;;;;;;5024619;28;20231;-67
2023/10/07 03:58:28;;;;;;;5.67;3.50;;;16.90;99.90;;;;;;5024734;28;20399;-67
2023/10/07 04:00:56;;;;;;;5.20;3.27;;;16.90;99.90;;;;;;5024821;28;20197;-67
2023/10/07 04:03:24;;;;;;;6.53;3.50;;;16.90;99.90;;;;;;5023808;28;20776;-68
2023/10/07 04:05:51;;;;;;;7.50;3.33;;;16.90;99.90;;;;;;5024834;28;20259;-67
2023/10/07 04:08:19;;;;;;;7.67;3.77;;;16.90;99.90;;;;;;5024768;28;20208;-67
2023/10/07 04:10:47;;;;;;;6.17;3.70;;;16.90;99.90;;;;;;5024640;28;20292;-67
2023/10/07 04:13:21;;;;;;;5.20;3.23;;;16.90;99.90;;;;;;5015125;28;20244;-67
2023/10/07 04:15:54;;;;;;;7.93;3.63;;;16.90;99.90;;;;;;5005519;28;20997;-67
2023/10/07 04:18:34;;;;;;;7.60;3.43;;;16.90;99.90;;;;;;5006536;28;20896;-67
2023/10/07 04:21:01;;;;;;;6.53;3.33;;;16.90;99.90;;;;;;5005401;28;20237;-67
2023/10/07 04:23:28;;;;;;;7.30;3.40;;;16.80;99.90;;;;;;5017685;28;20296;-67
2023/10/07 04:26:05;;;;;;;7.13;3.30;;;16.80;99.90;;;;;;5005349;28;20621;-67
2023/10/07 04:28:33;;;;;;;4.63;3.47;;;16.80;99.90;;;;;;5004840;28;20193;-67
2023/10/07 04:31:09;;;;;;;4.43;3.03;;;16.90;99.90;;;;;;5010034;28;20246;-67
2023/10/07 04:33:47;;;;;;;6.90;3.67;;;16.80;99.90;;;;;;5020469;28;20214;-67
2023/10/07 04:36:17;;;;;;;5.10;3.60;;;16.80;99.90;;;;;;5021441;28;20216;-68
2023/10/07 04:38:53;;;;;;;5.07;3.17;;;16.90;99.90;;;;;;5024724;28;20300;-67
2023/10/07 04:41:36;;;;;;;4.73;3.60;;;16.90;99.90;;;;;;5025049;28;20545;-67
2023/10/07 04:46:57;;;;;;;5.30;3.80;;;16.90;99.90;;;;;;4999707;28;20201;-67
2023/10/07 04:49:36;;;;;;;8.17;3.20;;;16.90;99.90;;;;;;5024472;28;20204;-67
2023/10/07 04:52:05;;;;;;;5.90;3.03;;;16.90;99.90;;;;;;5024859;28;20675;-67
2023/10/07 04:54:35;;;;;;;5.70;3.87;;;16.90;99.90;;;;;;5018627;28;20342;-67
2023/10/07 04:57:09;;;;;;;4.83;2.97;;;16.90;99.90;;;;;;5005570;28;20213;-67
2023/10/07 04:59:45;;;;;;;6.33;3.53;;;16.90;99.90;;;;;;5004693;28;20975;-67
2023/10/07 05:02:15;;;;;;;5.83;3.60;;;16.90;99.90;;;;;;5005593;28;20220;-67
2023/10/07 05:04:48;;;;;;;4.73;3.23;;;16.90;99.90;;;;;;5004569;28;20671;-66
2023/10/07 05:07:24;;;;;;;4.77;3.63;;;16.90;99.90;;;;;;5017649;28;20216;-67
2023/10/07 05:09:50;;;;;;;4.93;3.87;;;16.90;99.90;;;;;;5028095;28;20192;-67
2023/10/07 05:12:18;;;;;;;5.90;3.03;;;16.90;99.90;;;;;;5026914;28;20773;-66
2023/10/07 05:14:45;;;;;;;5.93;3.40;;;16.90;99.90;;;;;;5018028;28;20229;-66
2023/10/07 05:17:12;;;;;;;4.07;3.67;;;16.90;99.90;;;;;;5006999;28;20300;-66
2023/10/07 05:19:39;;;;;;;4.43;3.43;;;16.90;99.90;;;;;;5021047;28;20679;-66
2023/10/07 05:22:14;;;;;;;5.40;3.20;;;16.90;99.90;;;;;;5026036;28;20212;-66
2023/10/07 05:24:41;;;;;;;7.10;3.83;;;16.90;99.90;;;;;;5018320;28;20209;-66
2023/10/07 05:27:08;;;;;;;5.50;3.30;;;16.90;99.90;;;;;;5006398;28;20214;-66
2023/10/07 05:29:35;;;;;;;5.57;3.30;;;16.90;99.90;;;;;;5006313;28;20304;-66
2023/10/07 05:32:02;;;;;;;5.70;3.20;;;16.90;99.90;;;;;;5017592;28;20213;-67
2023/10/07 05:34:30;;;;;;;6.90;4.13;;;16.90;99.90;;;;;;5025617;28;20221;-66
2023/10/07 05:37:03;;;;;;;6.10;3.63;;;16.90;99.90;;;;;;5022950;28;20232;-66
2023/10/07 05:39:32;;;;;;;5.03;3.40;;;16.90;99.90;;;;;;5020465;28;20244;-66
2023/10/07 05:42:00;;;;;;;3.83;3.10;;;16.90;99.90;;;;;;5027250;28;20205;-66
2023/10/07 05:44:28;;;;;;;5.73;2.93;;;16.90;99.90;;;;;;5022026;28;20296;-66
2023/10/07 05:46:55;;;;;;;4.40;3.07;;;16.90;99.90;;;;;;5026917;28;20241;-66
2023/10/07 05:49:22;;;;;;;6.80;3.10;;;16.90;99.90;;;;;;5026665;28;20716;-66
2023/10/07 05:51:50;;;;;;;6.70;3.53;;;16.80;99.90;;;;;;5017550;28;20304;-66
2023/10/07 05:54:18;;;;;;;6.73;3.43;;;16.80;99.90;;;;;;5026919;28;20773;-66
2023/10/07 05:56:47;;;;;;;5.23;3.33;;;16.90;99.90;;;;;;5027086;28;20212;-65
2023/10/07 05:59:14;;;;;;;6.03;3.77;;;16.80;99.90;;;;;;5026246;28;20240;-65
2023/10/07 06:01:41;;;;;;;5.93;3.37;;;16.80;99.90;;;;;;5023836;28;20208;-65
2023/10/07 06:04:08;;;;;;;5.07;3.10;;;16.80;99.90;;;;;;5022703;28;20650;-66
2023/10/07 06:06:35;;;;;;;4.03;3.33;;;16.80;99.90;;;;;;5029624;28;20201;-66
2023/10/07 06:09:04;;;;;;;4.13;3.33;;;16.80;99.90;;;;;;5030861;28;20730;-66
2023/10/07 06:11:31;;;;;;;6.20;3.43;;;16.80;99.90;;;;;;5028385;28;20248;-66
2023/10/07 06:13:59;;;;;;;5.37;3.63;;;16.80;99.90;;;;;;5022263;28;20275;-66
2023/10/07 06:16:26;;;;;;;5.13;3.27;;;16.80;99.90;;;;;;5024537;28;20267;-66
2023/10/07 06:18:53;;;;;;;6.53;3.43;;;16.70;99.90;;;;;;5024429;28;20215;-66
2023/10/07 06:21:27;;;;;;;3.83;3.20;;;16.70;99.90;;;;;;5024544;28;20623;-66
2023/10/07 06:23:55;;;;;;;5.90;3.13;;;16.70;99.90;;;;;;5025817;28;20274;-66
2023/10/07 06:26:24;;;;;;;7.63;3.47;;;16.70;99.90;;;;;;5025595;28;20205;-66
2023/10/07 06:28:51;;;;;;;8.63;3.80;;;16.70;99.90;;;;;;5025566;28;20304;-66
2023/10/07 06:31:22;;;;;;;4.47;3.50;;;16.70;99.90;;;;;;5026196;28;20796;-66
2023/10/07 06:33:59;;;;;;;5.73;3.93;;;16.70;99.90;;;;;;5025501;28;20225;-66
2023/10/07 06:36:30;;;;;;;6.13;3.60;;;16.70;99.90;;;;;;5026295;28;20200;-66
2023/10/07 06:38:58;;;;;;;4.43;3.70;;;16.60;99.90;;;;;;5026745;28;20189;-66
2023/10/07 06:41:29;;;;;;;4.20;3.57;;;16.60;99.90;;;;;;5018667;28;20241;-66
2023/10/07 06:44:02;;;;;;;4.97;3.17;;;16.60;99.90;;;;;;5012676;28;20215;-67
2023/10/07 06:46:31;;;;;;;5.47;3.43;;;16.50;99.90;;;;;;5026558;28;20200;-66
2023/10/07 06:48:59;;;;;;;6.30;3.60;;;16.50;99.90;;;;;;5026192;28;20204;-66
2023/10/07 06:51:29;;;;;;;4.17;3.77;;;16.60;99.90;;;;;;5020627;28;20205;-66
2023/10/07 06:53:58;;;;;;;5.30;3.67;;;16.60;99.90;;;;;;5017889;28;20723;-66
2023/10/07 06:56:27;;;;;;;7.13;3.63;;;16.60;99.90;;;;;;5026617;28;20250;-66
2023/10/07 06:58:54;;;;;;;4.20;3.30;;;16.60;99.90;;;;;;5025921;28;20254;-66
2023/10/07 07:01:35;;;;;;;7.83;4.07;;;16.50;99.90;;;;;;5020752;28;20214;-66
2023/10/07 07:04:09;;;;;;;5.07;3.63;;;16.50;99.90;;;;;;5006288;28;20229;-66
2023/10/07 07:06:42;;;;;;;6.93;3.90;;;16.50;99.90;;;;;;5006086;28;20288;-66
2023/10/07 07:09:41;;;;;;;5.67;3.70;;;16.40;99.90;;;;;;5005857;28;20256;-66
2023/10/07 07:12:03;;;;;;;4.23;3.83;;;16.40;99.90;;;;;;5016349;28;20566;-66
2023/10/07 07:14:30;;;;;;;4.00;3.63;;;16.40;99.90;;;;;;5025702;28;20248;-66
2023/10/07 07:16:57;;;;;;;4.67;3.93;;;16.30;99.90;;;;;;5025449;28;20299;-66
2023/10/07 07:19:24;;;;;;;5.17;3.87;;;16.40;99.90;;;;;;5025422;28;20279;-66
2023/10/07 07:21:51;;;;;;;8.97;4.27;;;16.30;99.90;;;;;;5024828;28;20204;-67
2023/10/07 07:24:22;;;;;;;7.37;4.27;;;16.30;99.90;;;;;;5025666;28;20954;-66
2023/10/07 07:26:52;;;;;;;7.17;3.90;;;16.30;99.90;;;;;;5025264;28;20921;-66
2023/10/07 07:29:23;;;;;;;4.37;3.83;;;16.30;99.90;;;;;;5021567;28;20229;-66
2023/10/07 07:31:50;;;;;;;4.80;3.90;;;16.30;99.90;;;;;;5015062;28;20204;-66
2023/10/07 07:34:25;;;;;;;4.90;3.70;;;16.30;99.90;;;;;;5024750;28;20229;-66
2023/10/07 07:37:01;;;;;;;5.63;3.80;;;16.30;99.90;;;;;;5025593;28;20216;-67
2023/10/07 07:39:30;;;;;;;4.83;3.80;;;16.40;99.90;;;;;;5025506;28;20192;-65
2023/10/07 07:41:58;;;;;;;6.17;3.90;;;16.40;99.90;;;;;;5015399;28;20275;-66
2023/10/07 07:44:37;;;;;;;4.50;3.97;;;16.40;99.90;;;;;;5005815;28;20335;-65
2023/10/07 07:47:05;;;;;;;7.40;3.70;;;16.40;99.90;;;;;;5005593;28;20201;-66
2023/10/07 07:49:33;;;;;;;3.70;3.40;;;16.50;99.90;;;;;;5005459;28;20209;-65
2023/10/07 07:52:00;;;;;;;5.13;3.53;;;16.50;99.90;;;;;;5006486;28;20210;-66
2023/10/07 07:54:29;;;;;;;4.83;3.70;;;16.50;99.90;;;;;;5005413;28;20311;-66
2023/10/07 07:56:56;;;;;;;5.07;4.43;;;16.60;99.90;;;;;;5023419;28;20722;-66
2023/10/07 07:59:24;;;;;;;4.30;3.30;;;16.60;99.90;;;;;;5024995;28;20323;-65
2023/10/07 08:01:53;;;;;;;4.20;2.77;;;16.60;99.90;;;;;;5024841;28;20209;-65
2023/10/07 08:04:37;;;;;;;3.17;2.83;;;16.70;99.90;;;;;;5025114;28;20251;-66
2023/10/07 08:07:16;;;;;;;3.43;2.73;;;16.70;99.90;;;;;;5025437;28;20219;-66
2023/10/07 08:09:44;;;;;;;3.90;2.60;;;16.70;99.90;;;;;;5025139;28;20205;-66
2023/10/07 08:12:17;;;;;;;3.93;3.00;;;16.70;99.90;;;;;;5025351;28;20316;-66
2023/10/07 08:14:46;;;;;;;4.87;3.00;;;16.80;99.90;;;;;;5024673;28;20313;-65
2023/10/07 08:17:19;;;;;;;4.83;2.93;;;16.80;99.90;;;;;;5025050;28;20240;-66
2023/10/07 08:19:49;;;;;;;4.70;3.73;;;16.80;99.90;;;;;;5023161;28;20340;-66
2023/10/07 08:22:19;;;;;;;4.17;3.50;;;16.80;99.90;;;;;;5023806;28;20570;-66
2023/10/07 08:24:45;;;;;;;3.47;3.10;;;16.80;99.90;;;;;;5023838;28;20212;-65
2023/10/07 08:27:43;;;;;;;6.33;4.93;;;16.80;99.90;;;;;;5016747;28;20216;-66
2023/10/07 08:30:07;;;;;;;4.60;4.20;;;16.80;99.90;;;;;;5004634;28;20220;-66
2023/10/07 08:32:37;;;;;;;5.07;3.57;;;16.80;99.90;;;;;;5018689;28;20211;-66
2023/10/07 08:35:14;;;;;;;4.87;3.40;;;16.80;99.90;;;;;;5014428;28;20312;-66
2023/10/07 08:37:45;;;;;;;4.07;3.30;;;16.80;99.90;;;;;;5021420;28;20220;-65
2023/10/07 08:40:14;;;;;;;4.33;3.37;;;16.80;99.90;;;;;;5024622;28;20225;-65
2023/10/07 08:42:45;;;;;;;4.17;3.27;;;16.80;99.90;;;;;;5018465;28;20201;-66
2023/10/07 08:45:16;;;;;;;4.23;3.47;;;16.80;99.90;;;;;;5008784;28;20190;-66
2023/10/07 08:47:49;;;;;;;3.83;3.47;;;16.80;99.90;;;;;;5008512;28;20228;-66
2023/10/07 08:50:22;;;;;;;4.53;3.83;;;16.90;99.90;;;;;;5008416;28;20765;-65
2023/10/07 08:52:56;;;;;;;4.10;3.70;;;16.90;99.90;;;;;;5023641;28;20205;-65
2023/10/07 08:55:25;;;;;;;3.60;3.30;;;16.90;99.90;;;;;;5028279;28;20240;-65
2023/10/07 08:57:53;;;;;;;5.70;3.73;;;16.90;99.90;;;;;;5028263;28;20208;-67
2023/10/07 09:00:21;;;;;;;7.57;4.60;;;16.90;99.90;;;;;;5027856;28;20364;-65
2023/10/07 09:02:52;;;;;;;6.10;4.43;;;16.90;99.90;;;;;;5017148;28;20232;-65
2023/10/07 09:05:20;;;;;;;4.43;3.97;;;16.90;99.90;;;;;;5008657;28;20197;-65
2023/10/07 09:07:49;;;;;;;5.90;3.97;;;16.90;99.90;;;;;;5008788;28;20678;-65
2023/10/07 09:10:16;;;;;;;5.53;4.10;;;16.90;99.90;;;;;;5008439;28;20213;-66
2023/10/07 09:12:48;;;;;;;4.00;3.70;;;16.90;99.90;;;;;;5018640;28;20205;-65
2023/10/07 09:15:25;;;;;;;5.40;4.03;;;16.90;99.90;;;;;;5026130;28;20710;-65
2023/10/07 09:18:01;;;;;;;6.40;3.90;;;16.90;99.90;;;;;;5008550;28;20524;-66
2023/10/07 09:20:31;;;;;;;4.33;4.00;;;16.90;99.90;;;;;;5008311;28;20224;-65
2023/10/07 09:23:07;;;;;;;5.10;4.17;;;16.90;99.90;;;;;;5020520;28;20742;-65
2023/10/07 09:25:34;;;;;;;5.17;4.73;;;16.90;99.90;;;;;;5023510;28;20651;-66
2023/10/07 09:28:07;;;;;;;4.93;4.50;;;16.90;99.90;;;;;;5008309;28;20240;-66
2023/10/07 09:30:37;;;;;;;4.30;3.97;;;16.90;99.90;;;;;;5027108;28;20221;-65
2023/10/07 09:33:13;;;;;;;5.00;4.20;;;16.90;99.90;;;;;;5017133;28;20575;-65
2023/10/07 09:35:42;;;;;;;6.23;4.10;;;16.90;99.90;;;;;;5025895;28;20221;-65
2023/10/07 09:38:12;;;;;;;4.37;3.97;;;16.80;99.90;;;;;;5027461;28;20319;-66
2023/10/07 09:41:11;;;;;;;4.67;4.27;;;16.80;99.90;;;;;;5027639;28;20274;-66
2023/10/07 09:43:42;;;;;;;7.00;4.20;;;16.80;99.90;;;;;;5027591;28;20287;-66
2023/10/07 09:46:08;;;;;;;4.90;4.50;;;16.80;99.90;;;;;;5020503;28;20567;-66
2023/10/07 09:48:41;;;;;;;5.67;5.00;;;16.80;99.90;;;;;;5018170;28;20212;-66
2023/10/07 09:51:14;;;;;;;6.83;5.07;;;16.70;99.90;;;;;;5027390;28;20197;-66
2023/10/07 09:54:02;;;;;;;7.30;5.00;;;16.60;99.90;;;;;;5026197;28;20232;-66
2023/10/07 09:56:38;;;;;;;6.17;5.57;;;16.60;99.90;;;;;;5026015;28;20320;-66
2023/10/07 09:59:22;;;;;;;6.80;5.70;;;16.60;99.90;;;;;;5026991;28;20236;-66
2023/10/07 10:02:24;;;;;;;10.07;7.57;;;16.60;99.90;;;;;;5017192;28;20703;-66
2023/10/07 10:05:14;;;;;;;9.93;7.93;;;16.60;99.90;;;;;;5022437;28;20315;-66
2023/10/07 10:08:10;;;;;;;6.50;5.90;;;16.60;99.90;;;;;;5025739;28;20840;-66
2023/10/07 10:10:44;;;;;;;7.43;6.73;;;16.60;99.90;;;;;;5025429;28;20742;-66
2023/10/07 10:13:28;;;;;;;8.50;5.90;;;16.60;99.90;;;;;;5026187;28;20196;-66
2023/10/07 10:16:00;;;;;;;7.30;6.53;;;16.60;99.90;;;;;;5019203;28;20224;-66
2023/10/07 10:18:38;;;;;;;7.37;6.53;;;16.60;99.90;;;;;;5026020;28;20197;-66
2023/10/07 10:21:09;;;;;;;6.87;6.27;;;16.60;99.90;;;;;;5026649;28;20370;-66
2023/10/07 10:23:37;;;;;;;10.33;6.63;;;16.60;99.90;;;;;;5026227;28;20727;-66
2023/10/07 10:26:14;;;;;;;7.93;7.13;;;16.70;99.90;;;;;;5020940;28;20600;-66
2023/10/07 10:28:41;;;;;;;7.73;6.97;;;16.70;99.90;;;;;;5025556;28;20205;-66
2023/10/07 10:31:19;;;;;;;7.97;7.17;;;16.70;99.90;;;;;;5023704;28;20288;-66
2023/10/07 10:33:49;;;;;;;10.07;7.57;;;16.70;99.90;;;;;;5024928;28;20201;-66
2023/10/07 10:36:21;;;;;;;9.43;8.53;;;16.80;99.90;;;;;;5025296;28;20346;-67
2023/10/07 10:38:48;;;;;;;11.43;7.97;;;16.80;99.90;;;;;;5024407;28;20204;-65
2023/10/07 10:41:16;;;;;;;9.27;8.37;;;16.80;99.90;;;;;;5024964;28;20208;-65
2023/10/07 10:43:43;;;;;;;11.73;8.20;;;16.80;99.90;;;;;;5024798;28;20311;-66
2023/10/07 10:46:10;;;;;;;8.50;7.80;;;16.80;99.90;;;;;;5024926;28;20240;-65
2023/10/07 10:48:38;;;;;;;10.03;9.07;;;16.80;99.90;;;;;;5024119;28;20208;-66
2023/10/07 10:51:06;;;;;;;9.60;8.77;;;16.90;99.90;;;;;;5024530;28;20709;-66
2023/10/07 10:53:40;;;;;;;10.73;9.57;;;16.80;99.90;;;;;;5024241;28;20228;-66
2023/10/07 10:56:07;;;;;;;10.27;9.27;;;16.70;99.90;;;;;;5024520;28;20234;-66
2023/10/07 10:58:36;;;;;;;10.77;9.80;;;16.70;99.90;;;;;;5024451;28;20327;-66
2023/10/07 11:01:05;;;;;;;11.23;10.13;;;16.70;99.90;;;;;;5024103;28;20236;-66
2023/10/07 11:03:32;;;;;;;11.23;10.23;;;16.60;99.90;;;;;;5023920;28;20300;-65
2023/10/07 11:06:00;;;;;;;10.43;9.43;;;16.70;99.90;;;;;;5023982;28;20725;-65
2023/10/07 11:08:29;;;;;;;10.50;9.60;;;16.70;99.90;;;;;;5023757;28;20215;-66
2023/10/07 11:10:58;;;;;;;11.00;10.00;;;16.70;99.90;;;;;;5004338;28;20237;-67
2023/10/07 11:13:26;;;;;;;13.00;9.63;;;16.70;99.90;;;;;;5004427;28;20295;-66
2023/10/07 11:15:58;;;;;;;12.17;10.03;;;16.70;99.90;;;;;;5020073;28;20237;-66
2023/10/07 11:18:30;;;;;;;11.23;9.63;;;16.70;99.90;;;;;;5023909;28;20204;-66
2023/10/07 11:20:57;;;;;;;10.70;9.63;;;16.70;99.90;;;;;;5021661;28;20189;-66
2023/10/07 11:23:27;;;;;;;10.47;9.50;;;16.80;99.90;;;;;;5024562;28;20209;-66
2023/10/07 11:25:56;;;;;;;10.27;9.13;;;16.80;99.90;;;;;;5023963;28;20232;-66
2023/10/07 11:28:23;;;;;;;10.10;9.00;;;16.80;99.90;;;;;;5023997;28;20208;-66
2023/10/07 11:30:51;;;;;;;10.13;9.13;;;16.90;99.90;;;;;;5023166;28;20666;-66
2023/10/07 11:33:19;;;;;;;11.53;10.50;;;16.90;99.90;;;;;;5023025;28;20197;-66
2023/10/07 11:35:58;;;;;;;10.97;9.97;;;16.90;99.90;;;;;;5020761;28;20235;-66
2023/10/07 11:38:26;;;;;;;9.97;8.97;;;16.90;99.90;;;;;;5023352;28;20229;-66
2023/10/07 11:40:53;;;;;;;10.97;9.83;;;17.00;99.90;;;;;;5015669;28;20670;-66
2023/10/07 11:43:21;;;;;;;12.30;9.93;;;16.90;99.90;;;;;;5023221;28;20201;-66
2023/10/07 11:45:50;;;;;;;13.87;10.60;;;16.80;99.90;;;;;;5013430;28;20201;-66
2023/10/07 11:48:19;;;;;;;12.03;10.93;;;16.80;99.90;;;;;;5024022;28;20232;-66
2023/10/07 11:50:47;;;;;;;13.00;10.83;;;16.70;99.90;;;;;;5023834;28;20216;-66
2023/10/07 11:53:14;;;;;;;12.50;11.33;;;16.70;99.90;;;;;;5023767;28;20259;-66
2023/10/07 11:55:41;;;;;;;14.67;12.60;;;16.60;99.90;;;;;;5023061;28;20757;-66
2023/10/07 11:58:09;;;;;;;14.70;12.53;;;16.50;99.90;;;;;;5023208;28;20240;-67
2023/10/07 12:00:37;;;;;;;14.60;12.77;;;16.50;99.90;;;;;;5023829;28;20220;-66
2023/10/07 12:03:07;;;;;;;14.93;13.43;;;16.40;99.90;;;;;;5020318;28;20807;-66
2023/10/07 12:05:38;;;;;;;13.90;12.60;;;16.40;99.90;;;;;;5011133;28;20271;-67
2023/10/07 12:08:08;;;;;;;14.87;12.97;;;16.40;99.90;;;;;;5023307;28;20776;-66
2023/10/07 12:10:36;;;;;;;14.30;12.87;;;16.30;99.90;;;;;;5023349;28;20296;-66
2023/10/07 12:13:06;;;;;;;14.27;12.63;;;16.30;99.90;;;;;;5023579;28;20314;-67
2023/10/07 12:15:34;;;;;;;12.97;11.67;;;16.30;99.90;;;;;;5019330;28;20323;-66
2023/10/07 12:18:06;;;;;;;13.37;11.77;;;16.40;99.90;;;;;;5026774;28;20205;-66
2023/10/07 12:20:33;;;;;;;14.87;11.87;;;16.40;99.90;;;;;;5026959;28;20622;-66
2023/10/07 12:23:02;;;;;;;12.87;11.57;;;16.50;99.90;;;;;;5027344;28;20232;-66
2023/10/07 12:25:31;;;;;;;12.73;11.50;;;16.50;99.90;;;;;;5026625;28;20236;-66
2023/10/07 12:27:58;;;;;;;12.40;11.20;;;16.50;99.90;;;;;;5026769;28;20211;-66
2023/10/07 12:30:26;;;;;;;14.00;11.20;;;16.60;99.90;;;;;;5026952;28;20196;-66
2023/10/07 12:32:53;;;;;;;13.47;10.40;;;16.60;99.90;;;;;;5026601;28;20213;-66
2023/10/07 12:35:23;;;;;;;13.37;11.13;;;16.70;99.90;;;;;;5026569;28;20235;-66
2023/10/07 12:37:52;;;;;;;13.50;9.90;;;16.80;99.90;;;;;;5027076;28;20770;-66
2023/10/07 12:40:20;;;;;;;10.67;9.73;;;16.80;99.90;;;;;;5026171;28;20236;-66
2023/10/07 12:42:50;;;;;;;11.70;10.13;;;16.90;99.90;;;;;;5030726;28;20612;-66
2023/10/07 12:45:17;;;;;;;9.97;8.97;;;16.90;99.90;;;;;;5027129;28;21186;-66
2023/10/07 12:47:44;;;;;;;10.80;9.63;;;17.00;99.90;;;;;;5027211;28;20271;-66
2023/10/07 12:50:23;;;;;;;10.80;9.23;;;17.00;99.90;;;;;;5026690;28;20321;-66
2023/10/07 12:52:54;;;;;;;10.77;9.70;;;17.00;99.90;;;;;;5026573;28;20201;-66
2023/10/07 12:55:22;;;;;;;13.77;9.87;;;17.10;99.90;;;;;;5025110;28;20307;-66
2023/10/07 12:57:50;;;;;;;12.33;11.10;;;17.10;99.90;;;;;;5027077;28;20273;-66
2023/10/07 13:00:22;;;;;;;9.83;8.80;;;17.10;99.90;;;;;;5026650;28;20237;-66
2023/10/07 13:02:49;;;;;;;9.67;8.43;;;17.20;99.90;;;;;;5022857;28;20206;-68
2023/10/07 13:05:19;;;;;;;10.27;8.23;;;17.20;99.90;;;;;;5022887;28;20212;-66
2023/10/07 13:07:46;;;;;;;11.37;8.63;;;17.30;99.90;;;;;;5026442;28;20212;-66